Keno, OR

11:20 AM PST on February 26, 2017 (GMT -0800)
Klamath Falls International | | Change Station
Active Advisory: Winter Weather Advisory

Elev 4094 ft 42.16 °N, 121.73 °W | Updated 27 minutes ago

Overcast
Overcast
30 °F
Feels Like 23 °F
N
7
Wind Variable Wind from SE

Today
High -- | Low -- °F
--% Chance of Precip.
Yesterday
High -- | Low -- °F
Precip. -- in
Pressure 29.79 in
Visibility 10.0 miles
Clouds Few 2300 ft
Mostly Cloudy 4000 ft
Overcast 9000 ft
Windchill 23 °F
Dew Point 24 °F
Humidity 79%
Rainfall 0.00 in
Snow Depth Not available.
6:47 AM 5:54 PM
New Moon, 0% visible
METAR KLMT 261853Z 13006KT 10SM FEW023 BKN040 OVC090 M01/M04 A2974 RMK AO2 SLP087 T10111044
Pressure 29.79 in
Visibility 10.0 miles
Clouds Few 2300 ft
Mostly Cloudy 4000 ft
Overcast 9000 ft
Windchill 23 °F
Dew Point 24 °F
Humidity 79%
Rainfall 0.00 in
Snow Depth Not available.
6:47 AM 5:54 PM
New Moon, 0% visible
METAR KLMT 261853Z 13006KT 10SM FEW023 BKN040 OVC090 M01/M04 A2974 RMK AO2 SLP087 T10111044

Get Your Daily Forecast Email!

Thanks for signing up!

Be on the lookout for a verification email in your inbox.

You'll start receiving the daily forecast at 8 AM.

×

10-Day Weather Forecast

Almanac

Astronomy

Feb. 26, 2017 Rise Set
Actual Time
Civil Twilight
Nautical Twilight
Astronomical Twilight
Moon
Length of Visible Light
Length of Day
Tomorrow will be .
, % of the Moon is Illuminated

Today's Extremes

State Highs State Lows

Community

WunderPhotos

Upload Photos

1,962,540 photos uploaded!

WunderBlog® & News

Nearby

Air Quality

  Air Quality AQ Index Pollutant
Not available.

Snow Depth

Station Depth Elevation

Earthquake Activity

City Distance Mag. Time & Date
Minimum magnitude displayed is 2.5.

Coastal Water Temperatures

Place Temperature

Stations

Nearby Weather Stations

Station Location Temp. Windchill Dew Point Humidity Wind Precip. Elev Updated Type
                   

Watches & Warnings

Winter Weather Advisory
Issued: 3:32 AM PST Feb. 26, 2017 – National Weather Service

... Winter Weather Advisory remains in effect from 10 am this
morning to 4 am PST Monday...

* snow accumulations: 3 to 6 inches.

* Timing: the highest snowfall rates are expected this afternoon.

* Locations include: Highway 97 at Modoc Point, and from Spring
Creek to Crescent.

* Impacts: roads are expected to become snow covered in heavier
snow showers. Travel may be difficult at times.

* View the hazard area in detail at
http://weather.Gov/Medford/hazard

Precautionary/preparedness actions...

* slow down and allow extra time to reach your destination.

* Carry tire chains and be prepared for snow covered roads and
limited visibilities.

* See weather.Gov/Medford/cams for latest Road conditions.

* A Winter Weather Advisory for snow means that periods of snow
will cause travel difficulties.